createdAt,value
2015-11-09T07:00:00.627Z,850
2015-11-09T07:00:13.020Z,858
2015-11-09T07:00:28.458Z,866
2015-11-09T07:00:41.317Z,875
2015-11-09T07:00:53.520Z,883
2015-11-09T07:01:06.005Z,873
2015-11-09T07:01:18.508Z,882
2015-11-09T07:01:30.398Z,890
2015-11-09T07:01:42.367Z,917
2015-11-09T07:01:54.289Z,897
2015-11-09T07:02:06.195Z,923
2015-11-09T07:02:18.072Z,922
2015-11-09T07:02:30.103Z,949
2015-11-09T07:02:42.541Z,947
2015-11-09T07:02:54.525Z,974
2015-11-09T07:03:06.510Z,982
2015-11-09T07:03:18.966Z,980
2015-11-09T07:03:31.122Z,989
2015-11-09T07:03:43.106Z,997
2015-11-09T07:03:55.028Z,1006
2015-11-09T07:04:06.934Z,1042
2015-11-09T07:04:18.953Z,1051
2015-11-09T07:04:31.437Z,1059
2015-11-09T07:04:43.437Z,1067
2015-11-09T07:04:55.781Z,1076
2015-11-09T07:05:08.127Z,1103
2015-11-09T07:05:20.143Z,1111
2015-11-09T07:05:32.096Z,1109
2015-11-09T07:05:44.564Z,1118
2015-11-09T07:05:56.471Z,1144
2015-11-09T07:06:08.942Z,1143
2015-11-09T07:06:20.927Z,1151
2015-11-09T07:06:37.661Z,1150
2015-11-09T07:06:49.692Z,1158
2015-11-09T07:07:01.677Z,1166
2015-11-09T07:07:13.789Z,1175
2015-11-09T07:07:25.992Z,1183
2015-11-09T07:07:38.289Z,1191
2015-11-09T07:07:50.242Z,1218
2015-11-09T07:08:02.320Z,1198
2015-11-09T07:08:14.307Z,1225
2015-11-09T07:08:26.635Z,1233
2015-11-09T07:08:38.963Z,1232
2015-11-09T07:08:55.088Z,1258
2015-11-09T07:09:07.026Z,1267
2015-11-09T07:09:19.716Z,1265
2015-11-09T07:09:31.950Z,1274
2015-11-09T07:09:44.107Z,1272
2015-11-09T07:09:56.857Z,1317
2015-11-09T07:10:08.860Z,1316
2015-11-09T07:10:20.860Z,1332
2015-11-09T07:10:33.719Z,1349
2015-11-09T07:10:45.672Z,1321
2015-11-09T07:10:58.125Z,1337
2015-11-09T07:11:10.035Z,1354
2015-11-09T07:11:21.988Z,1353
2015-11-09T07:11:33.894Z,1369
2015-11-09T07:11:46.363Z,1386
2015-11-09T07:12:02.863Z,1411
2015-11-09T07:12:15.287Z,1428
2015-11-09T07:12:30.271Z,1453
2015-11-09T07:12:42.193Z,1480
2015-11-09T07:12:54.583Z,1497
2015-11-09T07:13:06.490Z,1495
2015-11-09T07:13:18.430Z,1548
2015-11-09T07:13:31.290Z,1557
2015-11-09T07:13:43.946Z,1565
2015-11-09T07:13:55.899Z,1584
2015-11-09T07:14:07.946Z,1584
2015-11-09T07:14:19.964Z,1594
2015-11-09T07:14:32.074Z,1603
2015-11-09T07:14:44.136Z,1595
2015-11-09T07:14:57.777Z,1568
2015-11-09T07:15:09.730Z,1588
2015-11-09T07:15:22.232Z,1562
2015-11-09T07:15:34.185Z,1563
2015-11-09T07:15:46.638Z,1546
2015-11-09T07:15:58.623Z,1548
2015-11-09T07:16:10.563Z,1550
2015-11-09T07:16:22.501Z,1523
2015-11-09T07:16:34.313Z,1543
2015-11-09T07:16:46.610Z,1534
2015-11-09T07:16:59.110Z,1526
2015-11-09T07:17:11.051Z,1536
2015-11-09T07:17:23.488Z,1546
2015-11-09T07:17:35.504Z,1556
2015-11-09T07:17:47.519Z,1584
2015-11-09T07:17:59.441Z,1566
2015-11-09T07:18:11.396Z,1576
2015-11-09T07:18:23.287Z,1576
2015-11-09T07:18:35.349Z,1576
2015-11-09T07:18:47.318Z,1576
2015-11-09T07:18:59.240Z,1594
2015-11-09T07:19:11.259Z,1613
2015-11-09T07:19:23.196Z,1629
2015-11-09T07:19:35.899Z,1626
2015-11-09T07:19:47.868Z,1618
2015-11-09T07:20:00.306Z,1663
2015-11-09T07:20:12.246Z,1659
2015-11-09T07:20:24.215Z,1670
2015-11-09T07:20:36.762Z,1704
2015-11-09T07:20:48.730Z,1739
2015-11-09T07:21:00.699Z,1757
2015-11-09T07:21:12.593Z,1787
2015-11-09T07:21:24.562Z,1853
2015-11-09T07:21:37.046Z,1843
2015-11-09T07:21:49.046Z,1864
2015-11-09T07:22:01.015Z,2034
2015-11-09T07:22:13.001Z,2099
2015-11-09T07:22:24.954Z,2264
2015-11-09T07:22:36.923Z,2353
2015-11-09T07:22:48.845Z,2386
2015-11-09T07:23:01.329Z,2425
2015-11-09T07:23:13.254Z,2447
2015-11-09T07:23:25.645Z,2463
2015-11-09T07:23:37.692Z,2497
2015-11-09T07:23:49.660Z,2583
2015-11-09T07:24:02.051Z,2576
2015-11-09T07:24:13.990Z,2555
2015-11-09T07:24:26.975Z,2466
2015-11-09T07:24:38.944Z,2468
2015-11-09T07:24:51.240Z,2508
2015-11-09T07:25:03.256Z,2534
2015-11-09T07:25:15.728Z,2592
2015-11-09T07:25:28.306Z,2625
2015-11-09T07:25:40.322Z,2659
2015-11-09T07:25:52.868Z,2711
2015-11-09T07:26:05.525Z,2764
2015-11-09T07:26:17.903Z,2779
2015-11-09T07:26:29.887Z,2823
2015-11-09T07:26:41.903Z,2858
2015-11-09T07:26:53.981Z,2883
2015-11-09T07:27:06.637Z,2918
2015-11-09T07:27:18.670Z,2917
2015-11-09T07:27:31.186Z,2925
2015-11-09T07:27:43.123Z,2943
2015-11-09T07:27:55.108Z,2953
2015-11-09T07:28:07.030Z,2917
2015-11-09T07:28:18.939Z,2927
2015-11-09T07:28:31.345Z,2900
2015-11-09T07:28:43.720Z,2891
2015-11-09T07:28:56.267Z,2875
2015-11-09T07:29:11.642Z,2830
2015-11-09T07:29:24.129Z,2830
2015-11-09T07:29:36.129Z,2848
2015-11-09T07:29:48.036Z,2856
2015-11-09T07:30:00.317Z,2846
2015-11-09T07:30:12.239Z,2865
2015-11-09T07:30:24.147Z,2873
2015-11-09T07:30:36.053Z,2891
2015-11-09T07:30:48.491Z,2910
2015-11-09T07:31:00.506Z,2900
2015-11-09T07:31:13.288Z,2918
2015-11-09T07:31:25.557Z,2945
2015-11-09T07:31:37.464Z,2972
2015-11-09T07:31:53.604Z,2997
2015-11-09T07:32:05.542Z,3032
2015-11-09T07:32:17.497Z,3077
2015-11-09T07:32:29.481Z,3130
2015-11-09T07:32:41.528Z,3192
2015-11-09T07:32:54.075Z,3226
2015-11-09T07:33:06.591Z,3296
2015-11-09T07:33:19.125Z,3366
2015-11-09T07:33:31.094Z,3455
2015-11-09T07:33:44.344Z,3515
2015-11-09T07:33:56.297Z,3557
2015-11-09T07:34:11.672Z,3645
2015-11-09T07:34:23.659Z,3724
2015-11-09T07:34:36.722Z,3766
2015-11-09T07:34:48.768Z,3854
2015-11-09T07:35:01.284Z,3933
2015-11-09T07:35:13.253Z,3983
2015-11-09T07:35:25.192Z,4070
2015-11-09T07:35:37.755Z,4166
2015-11-09T07:35:49.692Z,4243
2015-11-09T07:36:01.645Z,4310
2015-11-09T07:36:26.305Z,4490
2015-11-09T07:36:47.586Z,4689
2015-11-09T07:37:07.336Z,4852
2015-11-09T07:37:19.776Z,4954
2015-11-09T07:37:32.558Z,5093
2015-11-09T07:37:44.511Z,5221
2015-11-09T07:37:57.370Z,5359
2015-11-09T07:38:09.339Z,5514
2015-11-09T07:38:21.310Z,5651
2015-11-09T07:38:33.388Z,5807
2015-11-09T07:38:45.310Z,5934
2015-11-09T07:38:57.294Z,6090
2015-11-09T07:39:09.216Z,6254
2015-11-09T07:39:22.672Z,6416
2015-11-09T07:39:46.719Z,6674
2015-11-09T07:40:03.938Z,6923
2015-11-09T07:40:22.408Z,7120
2015-11-09T07:40:42.424Z,7380
2015-11-09T07:40:57.830Z,7552
2015-11-09T07:41:14.440Z,7716
2015-11-09T07:41:27.553Z,7818
2015-11-09T07:41:39.522Z,7912
2015-11-09T07:41:52.881Z,8026
2015-11-09T07:42:05.475Z,8111
2015-11-09T07:42:17.430Z,8188
2015-11-09T07:42:29.430Z,8285
2015-11-09T07:42:41.414Z,8318
2015-11-09T07:42:53.758Z,8317
2015-11-09T07:43:09.196Z,8354
2015-11-09T07:43:25.855Z,8354
2015-11-09T07:43:37.824Z,8354
2015-11-09T07:43:50.355Z,8390
2015-11-09T07:44:02.824Z,8437
2015-11-09T07:44:15.152Z,8447
2015-11-09T07:44:27.155Z,8457
2015-11-09T07:44:39.124Z,8495
2015-11-09T07:44:51.577Z,8515
2015-11-09T07:45:03.514Z,8545
2015-11-09T07:45:15.952Z,8557
2015-11-09T07:45:27.955Z,8568
2015-11-09T07:45:39.939Z,8598
2015-11-09T07:45:52.564Z,8610
2015-11-09T07:46:04.673Z,8640
2015-11-09T07:46:17.238Z,8670
2015-11-09T07:46:30.254Z,8718
2015-11-09T07:46:43.238Z,8746
2015-11-09T07:46:55.269Z,8801
2015-11-09T07:47:07.707Z,8873
2015-11-09T07:47:19.663Z,8953
2015-11-09T07:47:31.616Z,9060
2015-11-09T07:47:44.038Z,9147
2015-11-09T07:47:55.991Z,9244
2015-11-09T07:48:07.991Z,9314
2015-11-09T07:48:20.524Z,9366
2015-11-09T07:48:32.509Z,9428
2015-11-09T07:48:44.493Z,9453
2015-11-09T07:48:57.024Z,9451
2015-11-09T07:49:08.977Z,9478
2015-11-09T07:49:20.965Z,9513
2015-11-09T07:49:32.933Z,9547
2015-11-09T07:49:45.621Z,9617
2015-11-09T07:49:57.590Z,9677
2015-11-09T07:50:09.527Z,9774
2015-11-09T07:50:21.483Z,9843
2015-11-09T07:50:34.640Z,9976
2015-11-09T07:50:46.655Z,10063
2015-11-09T07:50:59.671Z,10169
2015-11-09T07:51:11.686Z,10282
2015-11-09T07:51:23.704Z,10396
2015-11-09T07:51:35.767Z,10491
2015-11-09T07:51:48.298Z,10587
2015-11-09T07:52:01.188Z,10672
2015-11-09T07:52:16.157Z,10766
2015-11-09T07:52:28.082Z,10851
2015-11-09T07:52:40.098Z,10973
2015-11-09T07:52:52.020Z,11065
2015-11-09T07:53:03.957Z,11194
2015-11-09T07:53:15.879Z,11331
2015-11-09T07:53:28.725Z,11467
2015-11-09T07:53:41.678Z,11638
2015-11-09T07:53:54.053Z,11798
2015-11-09T07:54:06.068Z,11949
2015-11-09T07:54:18.040Z,12108
2015-11-09T07:54:30.056Z,12248
2015-11-09T07:54:42.837Z,12422
2015-11-09T07:54:54.853Z,12588
2015-11-09T07:55:06.853Z,12764
2015-11-09T07:55:18.793Z,12903
2015-11-09T07:55:30.903Z,13087
2015-11-09T07:55:43.465Z,13298
2015-11-09T07:55:55.559Z,13491
2015-11-09T07:56:07.965Z,13700
2015-11-09T07:56:20.765Z,13946
2015-11-09T07:56:33.874Z,14172
2015-11-09T07:56:45.937Z,14392
2015-11-09T07:56:57.827Z,14573
2015-11-09T07:57:09.827Z,14764
2015-11-09T07:57:22.423Z,14988
2015-11-09T07:57:34.392Z,15193
2015-11-09T07:57:46.392Z,15653
2015-11-09T07:57:58.376Z,15857
2015-11-09T07:58:10.939Z,15798
2015-11-09T07:58:23.224Z,15997
2015-11-09T07:58:35.177Z,16177
2015-11-09T07:58:47.818Z,16386
2015-11-09T07:59:00.099Z,16534
2015-11-09T07:59:12.021Z,16586
2015-11-09T07:59:24.444Z,17165
2015-11-09T07:59:36.475Z,17669
2015-11-09T07:59:48.350Z,17817
2015-11-09T08:00:00.725Z,17787
2015-11-09T08:00:13.256Z,17808
2015-11-09T08:00:25.213Z,17587
2015-11-09T08:00:37.198Z,17443
2015-11-09T08:00:50.245Z,17552
2015-11-09T08:01:03.151Z,17724
2015-11-09T08:01:15.526Z,18015
2015-11-09T08:01:28.341Z,18574
2015-11-09T08:01:40.326Z,18527
2015-11-09T08:01:52.341Z,18298
2015-11-09T08:02:04.373Z,18006
2015-11-09T08:02:17.904Z,18599
2015-11-09T08:02:31.062Z,18630
2015-11-09T08:02:43.390Z,18634
2015-11-09T08:02:55.875Z,18598
2015-11-09T08:03:08.875Z,18738
2015-11-09T08:03:21.017Z,18755
2015-11-09T08:03:34.189Z,18720
2015-11-09T08:03:46.252Z,18750
2015-11-09T08:03:58.252Z,18770
2015-11-09T08:04:10.267Z,18765
2015-11-09T08:04:22.239Z,18879
2015-11-09T08:04:34.348Z,18903
2015-11-09T08:04:49.364Z,18928
2015-11-09T08:05:01.380Z,18928
2015-11-09T08:05:13.364Z,18998
2015-11-09T08:05:25.445Z,19030
2015-11-09T08:05:37.445Z,19015
2015-11-09T08:05:49.414Z,19063
2015-11-09T08:06:01.398Z,19129
2015-11-09T08:06:14.273Z,19161
2015-11-09T08:06:27.932Z,19132
2015-11-09T08:06:40.588Z,19138
2015-11-09T08:06:52.541Z,19158
2015-11-09T08:07:04.494Z,19250
2015-11-09T08:07:20.638Z,19181
2015-11-09T08:07:32.731Z,19231
2015-11-09T08:07:44.872Z,19433
2015-11-09T08:07:56.856Z,19530
2015-11-09T08:08:09.372Z,19520
2015-11-09T08:08:21.844Z,19498
2015-11-09T08:08:33.953Z,19431
2015-11-09T08:08:46.500Z,19532
2015-11-09T08:09:00.656Z,19725
2015-11-09T08:09:12.609Z,19673
2015-11-09T08:09:24.612Z,19541
2015-11-09T08:09:36.628Z,19475
2015-11-09T08:09:48.566Z,19257
2015-11-09T08:10:00.847Z,19570
2015-11-09T08:10:12.784Z,19559
2015-11-09T08:10:24.818Z,19542
2015-11-09T08:10:37.224Z,19507
2015-11-09T08:10:49.193Z,19503
2015-11-09T08:11:02.068Z,19494
2015-11-09T08:11:14.068Z,19410
2015-11-09T08:11:26.102Z,19452
2015-11-09T08:11:38.117Z,19445
2015-11-09T08:11:50.117Z,19330
2015-11-09T08:12:02.086Z,19304
2015-11-09T08:12:14.055Z,19321
2015-11-09T08:12:26.027Z,19369
2015-11-09T08:12:38.449Z,19077
2015-11-09T08:12:50.370Z,19366
2015-11-09T08:13:03.199Z,19394
2015-11-09T08:13:15.183Z,19356
2015-11-09T08:13:30.248Z,18895
2015-11-09T08:13:42.217Z,19053
2015-11-09T08:13:54.186Z,18780
2015-11-09T08:14:06.186Z,18593
2015-11-09T08:14:18.467Z,18736
2015-11-09T08:14:30.955Z,18862
2015-11-09T08:14:42.892Z,18915
2015-11-09T08:14:55.126Z,18856
2015-11-09T08:15:07.095Z,18010
2015-11-09T08:15:19.548Z,17941
2015-11-09T08:15:31.503Z,18199
2015-11-09T08:15:44.160Z,18245
2015-11-09T08:15:56.144Z,18143
2015-11-09T08:16:08.503Z,18063
2015-11-09T08:16:24.740Z,17961
2015-11-09T08:16:36.771Z,17869
2015-11-09T08:16:48.802Z,17657
2015-11-09T08:17:00.834Z,17501
2015-11-09T08:17:13.490Z,17386
2015-11-09T08:17:25.524Z,17291
2015-11-09T08:17:38.118Z,17145
2015-11-09T08:17:50.071Z,17028
2015-11-09T08:18:02.462Z,16944
2015-11-09T08:18:14.790Z,16850
2015-11-09T08:18:26.715Z,16852
2015-11-09T08:18:40.558Z,16833
2015-11-09T08:18:55.511Z,16766
2015-11-09T08:19:07.511Z,16701
2015-11-09T08:19:19.511Z,16605
2015-11-09T08:19:32.061Z,16385
2015-11-09T08:19:44.499Z,16318
2015-11-09T08:19:56.514Z,16233
2015-11-09T08:20:08.921Z,16161
2015-11-09T08:20:20.843Z,16200
2015-11-09T08:20:32.830Z,16208
2015-11-09T08:20:44.752Z,16097
2015-11-09T08:20:56.689Z,15887
2015-11-09T08:21:08.674Z,16309
2015-11-09T08:21:20.689Z,16329
2015-11-09T08:21:32.769Z,16357
2015-11-09T08:21:44.769Z,16365
2015-11-09T08:21:56.691Z,16387
2015-11-09T08:22:09.535Z,16429
2015-11-09T08:22:21.957Z,16496
2015-11-09T08:22:34.022Z,16588
2015-11-09T08:22:46.429Z,16620
2015-11-09T08:22:58.507Z,16623
2015-11-09T08:23:10.491Z,16623
2015-11-09T08:23:22.866Z,16647
2015-11-09T08:23:34.900Z,16709
2015-11-09T08:23:46.979Z,16827
2015-11-09T08:23:59.400Z,16944
2015-11-09T08:24:12.213Z,16999
2015-11-09T08:24:24.213Z,17157
2015-11-09T08:24:37.043Z,17169
2015-11-09T08:24:49.340Z,17229
2015-11-09T08:25:01.418Z,17313
2015-11-09T08:25:13.496Z,17427
2015-11-09T08:25:26.106Z,17521
2015-11-09T08:25:38.999Z,17725
2015-11-09T08:25:51.312Z,17939
2015-11-09T08:26:04.499Z,18110
2015-11-09T08:26:16.515Z,18245
2015-11-09T08:26:28.580Z,18480
2015-11-09T08:26:41.705Z,18637
2015-11-09T08:26:55.518Z,18863
2015-11-09T08:27:08.033Z,19076
2015-11-09T08:27:21.940Z,19259
2015-11-09T08:27:36.082Z,19433
2015-11-09T08:27:48.535Z,19662
2015-11-09T08:28:00.551Z,19819
2015-11-09T08:28:13.051Z,19959
2015-11-09T08:28:25.942Z,19991
2015-11-09T08:28:37.929Z,20205
2015-11-09T08:28:50.038Z,20354
2015-11-09T08:29:03.554Z,20494
2015-11-09T08:29:15.945Z,20527
2015-11-09T08:29:30.948Z,20611
2015-11-09T08:29:43.932Z,20563
2015-11-09T08:29:55.979Z,20635
2015-11-09T08:30:08.651Z,20595
2015-11-09T08:30:21.260Z,20659
2015-11-09T08:30:37.450Z,20828
2015-11-09T08:30:50.450Z,21002
2015-11-09T08:31:02.918Z,21131
2015-11-09T08:31:18.325Z,21398
2015-11-09T08:31:30.922Z,21544
2015-11-09T08:31:43.485Z,21718
2015-11-09T08:31:56.672Z,21908
2015-11-09T08:32:08.704Z,22124
2015-11-09T08:32:24.693Z,22405
2015-11-09T08:32:36.757Z,22591
2015-11-09T08:32:49.242Z,22735
2015-11-09T08:33:01.492Z,22840
2015-11-09T08:33:13.820Z,22785
2015-11-09T08:33:25.789Z,23246
2015-11-09T08:33:37.729Z,23630
2015-11-09T08:33:50.057Z,21765
2015-11-09T08:34:01.995Z,22985
2015-11-09T08:34:14.307Z,23827
